createdAt,value
2022-10-05T00:01:35.594Z,8.00
2022-10-05T00:04:38.504Z,9.32
2022-10-05T00:07:41.501Z,9.00
2022-10-05T00:10:45.982Z,7.85
2022-10-05T00:13:49.875Z,22.50
2022-10-05T00:16:54.338Z,10.97
2022-10-05T00:19:57.987Z,9.23
2022-10-05T00:23:05.249Z,12.27
2022-10-05T00:26:20.520Z,11.32
2022-10-05T00:29:24.909Z,10.40
2022-10-05T00:32:28.626Z,9.30
2022-10-05T00:35:36.513Z,9.98
2022-10-05T00:38:41.073Z,12.20
2022-10-05T00:41:47.414Z,10.93
2022-10-05T00:44:53.317Z,13.60
2022-10-05T00:48:06.998Z,13.70
2022-10-05T00:51:22.947Z,15.57
2022-10-05T00:54:38.016Z,14.30
2022-10-05T00:58:10.464Z,15.45
2022-10-05T01:01:18.627Z,15.55
2022-10-05T01:04:31.160Z,12.23
2022-10-05T01:07:55.180Z,13.35
2022-10-05T01:11:06.742Z,11.43
2022-10-05T01:14:13.190Z,13.20
2022-10-05T01:17:50.682Z,11.70
2022-10-05T01:21:22.975Z,11.73
2022-10-05T01:24:40.811Z,10.20
2022-10-05T01:28:09.609Z,13.32
2022-10-05T01:31:15.228Z,8.00
2022-10-05T01:34:41.871Z,10.77
2022-10-05T01:38:00.607Z,11.57
2022-10-05T01:41:25.049Z,12.47
2022-10-05T01:44:45.505Z,13.52
2022-10-05T01:47:54.608Z,7.93
2022-10-05T01:51:19.910Z,5.50
2022-10-05T01:54:36.107Z,4.60
2022-10-05T01:58:10.957Z,4.80
2022-10-05T02:01:31.382Z,4.53
2022-10-05T02:05:01.622Z,4.45
2022-10-05T02:08:31.917Z,4.18
2022-10-05T02:11:36.740Z,3.67
2022-10-05T02:14:46.360Z,3.17
2022-10-05T02:17:54.164Z,4.00
2022-10-05T02:21:02.022Z,3.22
2022-10-05T02:24:12.958Z,4.28
2022-10-05T02:27:23.970Z,4.13
2022-10-05T02:30:30.355Z,4.33
2022-10-05T02:33:36.165Z,4.45
2022-10-05T02:36:46.786Z,4.72
2022-10-05T02:40:01.231Z,4.40
2022-10-05T02:43:20.861Z,5.07
2022-10-05T02:47:00.560Z,6.60
2022-10-05T02:50:27.948Z,4.20
2022-10-05T02:53:46.757Z,3.90
2022-10-05T02:57:02.748Z,3.80
2022-10-05T03:00:16.898Z,3.43
2022-10-05T03:03:36.391Z,3.50
2022-10-05T03:06:52.470Z,5.13
2022-10-05T03:10:19.561Z,3.90
2022-10-05T03:13:43.287Z,2.70
2022-10-05T03:16:52.948Z,2.97
2022-10-05T03:20:27.216Z,2.87
2022-10-05T03:23:52.293Z,3.33
2022-10-05T03:27:08.069Z,3.05
2022-10-05T03:30:17.490Z,3.28
2022-10-05T03:33:43.087Z,3.23
2022-10-05T03:36:54.292Z,3.23
2022-10-05T03:40:26.032Z,3.40
2022-10-05T03:43:55.192Z,2.95
2022-10-05T03:47:46.553Z,3.10
2022-10-05T03:51:08.933Z,4.07
2022-10-05T03:54:18.636Z,3.90
2022-10-05T03:57:28.872Z,3.53
2022-10-05T04:00:35.563Z,3.78
2022-10-05T04:03:47.709Z,4.18
2022-10-05T04:06:53.943Z,5.27
2022-10-05T04:10:00.807Z,4.80
2022-10-05T04:13:12.702Z,3.30
2022-10-05T04:16:28.780Z,3.88
2022-10-05T04:19:54.523Z,3.67
2022-10-05T04:23:19.539Z,3.13
2022-10-05T04:26:49.065Z,1.93
2022-10-05T04:30:06.050Z,2.30
2022-10-05T04:33:13.192Z,3.70
2022-10-05T04:36:16.780Z,2.47
2022-10-05T04:39:31.832Z,2.33
2022-10-05T04:42:45.178Z,1.60
2022-10-05T04:46:03.637Z,2.05
2022-10-05T04:49:46.149Z,2.55
2022-10-05T04:52:59.323Z,2.13
2022-10-05T04:56:41.147Z,2.20
2022-10-05T05:00:17.279Z,3.80
2022-10-05T05:03:43.952Z,1.67
2022-10-05T05:06:52.754Z,2.10
2022-10-05T05:10:21.427Z,2.17
2022-10-05T05:13:41.893Z,2.93
2022-10-05T05:16:49.947Z,2.60
2022-10-05T05:20:36.301Z,2.70
2022-10-05T05:23:45.173Z,11.02
2022-10-05T05:27:00.682Z,6.25
2022-10-05T05:30:13.574Z,2.87
2022-10-05T05:33:22.144Z,3.67
2022-10-05T05:36:43.657Z,4.13
2022-10-05T05:40:03.498Z,3.78
2022-10-05T05:43:31.848Z,4.22
2022-10-05T05:47:02.816Z,2.80
2022-10-05T05:50:17.856Z,2.47
2022-10-05T05:53:30.362Z,3.17
2022-10-05T05:56:46.063Z,3.75
2022-10-05T06:00:06.331Z,4.07
2022-10-05T06:03:33.836Z,2.47
2022-10-05T06:06:42.085Z,2.60
2022-10-05T06:09:51.153Z,2.58
2022-10-05T06:13:16.848Z,2.20
2022-10-05T06:16:46.901Z,1.70
2022-10-05T06:20:03.998Z,2.90
2022-10-05T06:23:26.152Z,3.53
2022-10-05T06:26:35.543Z,3.65
2022-10-05T06:30:00.636Z,4.32
2022-10-05T06:33:17.729Z,6.13
2022-10-05T06:36:23.965Z,5.87
2022-10-05T06:39:52.487Z,4.37
2022-10-05T06:43:12.002Z,3.00
2022-10-05T06:46:44.483Z,1.98
2022-10-05T06:50:26.856Z,3.53
2022-10-05T06:53:49.253Z,2.30
2022-10-05T06:57:05.603Z,4.07
2022-10-05T07:00:17.806Z,5.47
2022-10-05T07:03:39.712Z,4.63
2022-10-05T07:07:00.791Z,3.53
2022-10-05T07:10:34.364Z,3.17
2022-10-05T07:14:03.939Z,5.00
2022-10-05T07:17:28.740Z,4.10
2022-10-05T07:20:48.890Z,4.55
2022-10-05T07:24:05.960Z,3.67
2022-10-05T07:27:20.866Z,3.53
2022-10-05T07:30:25.168Z,3.63
2022-10-05T07:33:51.830Z,9.43
2022-10-05T07:37:40.975Z,6.93
2022-10-05T07:41:11.708Z,6.15
2022-10-05T07:44:49.344Z,2.20
2022-10-05T07:48:00.026Z,2.83
2022-10-05T07:51:25.253Z,2.88
2022-10-05T07:54:38.926Z,2.95
2022-10-05T07:58:03.934Z,3.25
2022-10-05T08:01:22.531Z,4.30
2022-10-05T08:04:38.145Z,4.10
2022-10-05T08:07:50.999Z,3.70
2022-10-05T08:10:57.578Z,2.42
2022-10-05T08:14:28.839Z,2.85
2022-10-05T08:18:01.778Z,2.93
2022-10-05T08:21:12.935Z,9.10
2022-10-05T08:24:34.021Z,3.03
2022-10-05T08:27:46.639Z,2.53
2022-10-05T08:31:27.863Z,3.60
2022-10-05T08:34:58.446Z,3.93
2022-10-05T08:38:12.905Z,4.67
2022-10-05T08:41:29.911Z,5.75
2022-10-05T08:45:11.228Z,7.20
2022-10-05T08:48:56.812Z,8.40
2022-10-05T08:52:29.778Z,4.17
2022-10-05T08:55:52.821Z,5.40
2022-10-05T08:59:24.093Z,6.90
2022-10-05T09:02:42.587Z,5.22
2022-10-05T09:06:23.847Z,4.05
2022-10-05T09:10:08.228Z,3.87
2022-10-05T09:13:50.184Z,3.67
2022-10-05T09:17:19.714Z,3.92
2022-10-05T09:20:50.226Z,11.13
2022-10-05T09:24:26.342Z,5.25
2022-10-05T09:27:43.673Z,4.30
2022-10-05T09:31:31.156Z,4.03
2022-10-05T09:35:13.910Z,4.30
2022-10-05T09:38:54.443Z,4.78
2022-10-05T09:42:27.560Z,6.35
2022-10-05T09:45:58.009Z,5.80
2022-10-05T09:49:03.710Z,6.23
2022-10-05T09:52:26.993Z,7.50
2022-10-05T09:55:29.880Z,8.40
2022-10-05T09:58:55.143Z,10.00
2022-10-05T10:02:33.166Z,7.83
2022-10-05T10:06:13.960Z,7.30
2022-10-05T10:09:25.817Z,7.63
2022-10-05T10:12:47.265Z,8.05
2022-10-05T10:16:11.666Z,13.45
2022-10-05T10:19:52.960Z,13.30
2022-10-05T10:23:14.034Z,15.35
2022-10-05T10:26:41.733Z,14.25
2022-10-05T10:30:09.102Z,14.30
2022-10-05T10:33:34.340Z,12.82
2022-10-05T10:36:40.540Z,12.23
2022-10-05T10:39:59.466Z,14.30
2022-10-05T10:43:24.238Z,14.10
2022-10-05T10:47:04.261Z,12.60
2022-10-05T10:50:52.404Z,10.25
2022-10-05T10:54:26.087Z,8.10
2022-10-05T10:57:39.799Z,8.85
2022-10-05T11:01:13.021Z,9.77
2022-10-05T11:04:36.436Z,15.57
2022-10-05T11:08:02.104Z,10.82
2022-10-05T11:11:28.752Z,6.13
2022-10-05T11:15:13.097Z,7.00
2022-10-05T11:18:42.568Z,8.30
2022-10-05T11:22:08.501Z,15.00
2022-10-05T11:25:47.576Z,24.55
2022-10-05T11:29:03.543Z,30.83
2022-10-05T11:32:47.044Z,30.30
2022-10-05T11:36:47.328Z,18.73
2022-10-05T11:40:28.274Z,9.80
2022-10-05T11:43:53.696Z,8.57
2022-10-05T11:47:17.685Z,10.17
2022-10-05T11:50:40.339Z,10.60
2022-10-05T11:53:54.409Z,11.77
2022-10-05T11:57:10.661Z,13.80
2022-10-05T12:00:25.332Z,13.10
2022-10-05T12:03:47.218Z,11.77
2022-10-05T12:07:04.501Z,10.35
2022-10-05T12:10:25.041Z,11.02
2022-10-05T12:13:42.744Z,13.73
2022-10-05T12:16:54.800Z,9.60
2022-10-05T12:20:34.225Z,10.07
2022-10-05T12:23:48.692Z,11.35
2022-10-05T12:27:19.118Z,10.05
2022-10-05T12:30:39.877Z,10.52
2022-10-05T12:34:18.846Z,10.20
2022-10-05T12:37:40.812Z,10.83
2022-10-05T12:41:12.531Z,11.43
2022-10-05T12:44:44.228Z,22.50
2022-10-05T12:48:27.290Z,22.52
2022-10-05T12:51:48.212Z,31.35
2022-10-05T12:55:22.775Z,18.77
2022-10-05T12:59:01.221Z,14.15
2022-10-05T13:02:21.418Z,11.23
2022-10-05T13:05:40.402Z,11.48
2022-10-05T13:09:01.172Z,5.97
2022-10-05T13:12:30.743Z,22.33
2022-10-05T13:15:59.355Z,8.52
2022-10-05T13:19:34.413Z,5.10
2022-10-05T13:22:47.368Z,4.68
2022-10-05T13:26:08.833Z,6.15
2022-10-05T13:29:30.646Z,8.60
2022-10-05T13:32:42.980Z,22.63
2022-10-05T13:35:59.879Z,13.57
2022-10-05T13:39:07.265Z,13.88
2022-10-05T13:42:20.831Z,17.63
2022-10-05T13:45:33.620Z,13.40
2022-10-05T13:49:20.767Z,15.30
2022-10-05T13:52:54.996Z,16.42
2022-10-05T13:56:20.886Z,13.88
2022-10-05T14:00:03.682Z,13.13
2022-10-05T14:03:36.880Z,12.70
2022-10-05T14:06:42.069Z,11.80
2022-10-05T14:09:50.946Z,8.60
2022-10-05T14:12:56.569Z,7.22
2022-10-05T14:16:05.483Z,6.82
2022-10-05T14:19:08.571Z,6.00
2022-10-05T14:22:23.874Z,11.13
2022-10-05T14:25:30.141Z,7.95
2022-10-05T14:28:39.351Z,9.30
2022-10-05T14:31:55.883Z,6.82
2022-10-05T14:35:13.313Z,5.23
2022-10-05T14:38:26.914Z,6.88
2022-10-05T14:41:30.309Z,5.32
2022-10-05T14:44:33.662Z,7.28
2022-10-05T14:47:52.406Z,7.47
2022-10-05T14:50:58.242Z,8.10
2022-10-05T14:54:15.986Z,11.40
2022-10-05T14:57:32.657Z,15.20
2022-10-05T15:00:50.398Z,13.80
2022-10-05T15:04:14.786Z,10.98
2022-10-05T15:07:21.396Z,9.40
2022-10-05T15:10:36.969Z,4.80
2022-10-05T15:13:44.789Z,7.50
2022-10-05T15:16:53.630Z,9.63
2022-10-05T15:20:25.348Z,15.05
2022-10-05T15:23:29.004Z,13.60
2022-10-05T15:26:47.556Z,13.25
2022-10-05T15:30:05.720Z,11.27
2022-10-05T15:33:31.150Z,14.15
2022-10-05T15:36:43.453Z,13.82
2022-10-05T15:39:57.945Z,14.93
2022-10-05T15:43:17.441Z,6.55
2022-10-05T15:46:39.567Z,9.32
2022-10-05T15:50:01.216Z,11.38
2022-10-05T15:53:21.127Z,10.13
2022-10-05T15:56:39.130Z,7.87
2022-10-05T16:00:02.140Z,9.48
2022-10-05T16:03:37.824Z,7.53
2022-10-05T16:07:17.590Z,6.32
2022-10-05T16:10:27.431Z,3.88
2022-10-05T16:13:46.501Z,4.30
2022-10-05T16:17:04.639Z,2.20
2022-10-05T16:20:08.237Z,2.10
2022-10-05T16:23:45.157Z,2.75
2022-10-05T16:27:17.083Z,2.20
2022-10-05T16:30:22.997Z,2.73
2022-10-05T16:33:59.060Z,3.03
2022-10-05T16:37:20.656Z,4.18
2022-10-05T16:40:40.565Z,5.25
2022-10-05T16:44:04.242Z,4.68
2022-10-05T16:47:38.355Z,4.33
2022-10-05T16:51:20.317Z,3.05
2022-10-05T16:54:48.098Z,3.25
2022-10-05T16:57:56.168Z,3.78
2022-10-05T17:01:18.446Z,3.22
2022-10-05T17:04:43.290Z,2.90
2022-10-05T17:08:19.773Z,2.60
2022-10-05T17:11:37.775Z,2.90
2022-10-05T17:15:00.957Z,3.03
2022-10-05T17:18:29.870Z,2.80
2022-10-05T17:21:41.920Z,4.27
2022-10-05T17:24:59.966Z,3.92
2022-10-05T17:28:17.859Z,5.75
2022-10-05T17:31:28.191Z,5.18
2022-10-05T17:34:35.587Z,5.38
2022-10-05T17:38:14.723Z,5.23
2022-10-05T17:41:30.769Z,3.63
2022-10-05T17:44:33.799Z,3.58
2022-10-05T17:48:01.514Z,3.55
2022-10-05T17:51:36.803Z,2.88
2022-10-05T17:55:04.339Z,2.57
2022-10-05T17:58:28.143Z,2.20
2022-10-05T18:01:40.058Z,1.67
2022-10-05T18:04:51.803Z,2.20
2022-10-05T18:08:13.286Z,1.58
2022-10-05T18:11:38.911Z,2.30
2022-10-05T18:14:57.111Z,3.17
2022-10-05T18:18:33.329Z,2.50
2022-10-05T18:21:39.426Z,2.03
2022-10-05T18:25:13.887Z,1.95
2022-10-05T18:28:32.841Z,2.17
2022-10-05T18:31:50.671Z,2.20
2022-10-05T18:35:19.455Z,2.70
2022-10-05T18:38:38.985Z,2.58
2022-10-05T18:42:12.643Z,3.00
2022-10-05T18:45:36.912Z,3.00
2022-10-05T18:48:56.029Z,3.40
2022-10-05T18:52:24.009Z,3.95
2022-10-05T18:55:33.576Z,2.33
2022-10-05T18:58:43.562Z,3.40
2022-10-05T19:01:59.187Z,3.37
2022-10-05T19:05:47.014Z,2.83
2022-10-05T19:09:03.385Z,3.45
2022-10-05T19:16:05.006Z,2.58
2022-10-05T19:19:37.474Z,2.50
2022-10-05T19:22:51.254Z,2.42
2022-10-05T19:26:15.381Z,2.65
2022-10-05T19:29:42.715Z,2.70
2022-10-05T19:33:05.461Z,2.88
2022-10-05T19:36:13.892Z,2.70
2022-10-05T19:39:29.553Z,2.75
2022-10-05T19:43:00.112Z,3.40
2022-10-05T19:46:04.304Z,2.47
2022-10-05T19:49:11.169Z,2.53
2022-10-05T19:52:40.993Z,2.20
2022-10-05T19:55:47.674Z,2.03
2022-10-05T19:58:54.996Z,1.65
2022-10-05T20:01:59.714Z,2.10
2022-10-05T20:05:08.544Z,2.60
2022-10-05T20:08:20.811Z,2.30
2022-10-05T20:11:32.428Z,1.63
2022-10-05T20:14:59.223Z,1.80
2022-10-05T20:18:54.682Z,2.08
2022-10-05T20:22:00.367Z,1.70
2022-10-05T20:25:19.631Z,1.97
2022-10-05T20:28:33.198Z,2.17
2022-10-05T20:31:36.958Z,2.08
2022-10-05T20:34:43.337Z,1.83
2022-10-05T20:37:46.860Z,1.90
2022-10-05T20:40:50.416Z,2.00
2022-10-05T20:43:55.898Z,1.75
2022-10-05T20:47:01.739Z,2.47
2022-10-05T20:50:09.886Z,2.13
2022-10-05T20:53:13.695Z,2.80
2022-10-05T20:56:17.638Z,3.43
2022-10-05T20:59:21.391Z,3.67
2022-10-05T21:02:25.553Z,3.00
2022-10-05T21:05:28.703Z,3.30
2022-10-05T21:08:32.119Z,2.88
2022-10-05T21:11:35.589Z,2.40
2022-10-05T21:14:39.377Z,2.30
2022-10-05T21:17:43.329Z,2.03
2022-10-05T21:20:51.058Z,2.30
2022-10-05T21:23:55.394Z,2.33
2022-10-05T21:26:58.619Z,2.00
2022-10-05T21:30:02.200Z,1.90
2022-10-05T21:33:06.232Z,1.98
2022-10-05T21:36:09.885Z,3.22
2022-10-05T21:39:13.905Z,2.90
2022-10-05T21:42:17.902Z,3.90
2022-10-05T21:45:21.533Z,5.43
2022-10-05T21:48:27.029Z,5.90
2022-10-05T21:51:30.964Z,5.78
2022-10-05T21:54:35.946Z,3.63
2022-10-05T21:57:39.834Z,3.60
2022-10-05T22:01:02.651Z,3.13
2022-10-05T22:04:06.504Z,2.35
2022-10-05T22:07:19.060Z,2.95
2022-10-05T22:10:22.274Z,3.17
2022-10-05T22:13:26.706Z,3.33
2022-10-05T22:16:37.488Z,5.28
2022-10-05T22:19:41.395Z,3.00
2022-10-05T22:22:45.470Z,2.72
2022-10-05T22:25:49.763Z,3.15
2022-10-05T22:28:57.418Z,3.97
2022-10-05T22:32:01.091Z,2.60
2022-10-05T22:35:09.194Z,2.58
2022-10-05T22:38:15.123Z,2.30
2022-10-05T22:41:18.866Z,2.38
2022-10-05T22:44:22.571Z,3.03
2022-10-05T22:47:26.562Z,2.55
2022-10-05T22:50:30.694Z,2.88
2022-10-05T22:53:34.165Z,2.85
2022-10-05T22:56:37.113Z,3.15
2022-10-05T22:59:41.071Z,2.97
2022-10-05T23:02:45.963Z,2.97
2022-10-05T23:05:57.370Z,2.85
2022-10-05T23:09:00.308Z,2.83
2022-10-05T23:12:03.192Z,3.03
2022-10-05T23:15:07.586Z,3.50
2022-10-05T23:18:10.515Z,3.38
2022-10-05T23:21:14.123Z,3.33
2022-10-05T23:24:17.348Z,3.65
2022-10-05T23:27:20.397Z,3.63
2022-10-05T23:30:23.958Z,3.53
2022-10-05T23:33:27.429Z,3.13
2022-10-05T23:36:34.191Z,4.22
2022-10-05T23:39:37.642Z,10.93
2022-10-05T23:42:42.069Z,4.10
2022-10-05T23:45:46.051Z,3.30
2022-10-05T23:48:51.195Z,3.45
2022-10-05T23:51:54.144Z,3.67
2022-10-05T23:54:57.725Z,3.47
2022-10-05T23:58:01.586Z,3.85
